Time;durP1;ratioP1;P1;durP2;ratioP2;P2;SDS_P1;SDS_P2;PMS_P1;PMS_P2;Temp;Humidity;BMP_temperature;BMP_pressure;BME280_temperature;BME280_humidity;BME280_pressure;Samples;Min_cycle;Max_cycle;Signal;HPM_P1;HPM_P2
2023/04/20 00:01:17;;;;;;;4.45;2.90;;;;;;;6.76;72.36;-18210.03;4969260;28;20030;-85
2023/04/20 00:03:42;;;;;;;9.32;3.15;;;;;;;6.74;72.44;-18209.47;4967980;28;20035;-84
2023/04/20 00:06:08;;;;;;;8.50;2.60;;;;;;;6.70;73.18;-18208.38;4985403;28;20031;-86
2023/04/20 00:08:33;;;;;;;4.60;2.90;;;;;;;6.66;72.88;-18207.28;4972869;28;20078;-84
2023/04/20 00:10:58;;;;;;;5.95;2.88;;;;;;;6.69;78.48;-18208.22;4977634;28;20099;-84
2023/04/20 00:13:25;;;;;;;5.50;2.50;;;;;;;6.71;75.44;-18208.78;4974419;28;21127;-86
2023/04/20 00:15:50;;;;;;;5.10;2.63;;;;;;;6.76;74.29;-18210.03;4964293;28;20046;-86
2023/04/20 00:18:15;;;;;;;6.45;2.90;;;;;;;6.67;74.28;-18207.53;4970527;28;20031;-85
2023/04/20 00:20:41;;;;;;;4.00;2.60;;;;;;;6.63;77.05;-18206.44;4967689;28;20092;-84
2023/04/20 00:23:06;;;;;;;5.63;2.80;;;;;;;6.53;77.38;-18203.97;4963821;28;20043;-85
2023/04/20 00:25:31;;;;;;;6.85;2.75;;;;;;;6.52;79.32;-18203.69;4961982;28;20588;-84
2023/04/20 00:27:57;;;;;;;6.32;2.47;;;;;;;6.47;77.44;-18202.31;4982389;28;20473;-84
2023/04/20 00:30:23;;;;;;;5.65;2.80;;;;;;;6.44;77.83;-18201.47;4973550;28;21867;-86
2023/04/20 00:32:48;;;;;;;6.10;2.53;;;;;;;6.43;77.69;-18201.06;4973474;28;20458;-85
2023/04/20 00:35:13;;;;;;;5.15;2.90;;;;;;;6.40;78.94;-18200.25;4971462;28;20042;-84
2023/04/20 00:37:39;;;;;;;6.30;2.78;;;;;;;6.40;79.57;-18200.38;4962173;28;20403;-86
2023/04/20 00:40:05;;;;;;;3.47;2.47;;;;;;;6.38;79.93;-18199.69;4970256;28;20117;-85
2023/04/20 00:42:31;;;;;;;7.65;2.45;;;;;;;6.34;80.10;-18198.72;4972827;28;20039;-85
2023/04/20 00:44:56;;;;;;;5.10;2.78;;;;;;;6.30;81.78;-18197.63;4968178;28;20104;-85
2023/04/20 00:47:21;;;;;;;6.18;2.90;;;;;;;6.25;82.69;-18196.38;4950173;28;20514;-84
2023/04/20 00:49:47;;;;;;;6.72;2.58;;;;;;;6.28;83.19;-18197.06;4979755;28;20574;-84
2023/04/20 00:52:13;;;;;;;4.70;2.45;;;;;;;6.26;84.65;-18196.66;4982677;28;20046;-84
2023/04/20 00:54:38;;;;;;;6.53;2.80;;;;;;;6.24;84.60;-18196.09;4983919;28;20171;-84
2023/04/20 00:57:04;;;;;;;9.68;3.03;;;;;;;6.20;86.78;-18195.00;4972002;28;20043;-84
2023/04/20 00:59:29;;;;;;;5.90;2.80;;;;;;;6.20;87.39;-18194.84;4966721;28;20051;-83
2023/04/20 01:01:56;;;;;;;4.68;2.80;;;;;;;6.17;89.75;-18194.16;4967885;28;20062;-84
2023/04/20 01:04:22;;;;;;;5.85;2.90;;;;;;;6.13;91.20;-18193.06;4965362;28;20631;-84
2023/04/20 01:06:47;;;;;;;5.40;2.90;;;;;;;6.14;95.27;-18193.34;4960743;28;20098;-84
2023/04/20 01:09:12;;;;;;;8.50;3.42;;;;;;;6.12;93.66;-18192.66;4955949;28;20110;-84
2023/04/20 01:11:38;;;;;;;5.90;2.85;;;;;;;6.12;95.36;-18192.66;4962810;28;20061;-84
2023/04/20 01:14:04;;;;;;;5.50;2.83;;;;;;;6.12;95.41;-18192.78;4965315;28;20995;-83
2023/04/20 01:16:30;;;;;;;6.85;3.03;;;;;;;6.07;96.85;-18191.41;4965163;28;20498;-83
2023/04/20 01:18:56;;;;;;;6.25;3.17;;;;;;;6.06;97.88;-18191.28;4956222;28;20031;-84
2023/04/20 01:21:22;;;;;;;5.85;3.08;;;;;;;6.02;99.42;-18190.16;4962107;28;20027;-84
2023/04/20 01:23:48;;;;;;;5.57;3.20;;;;;;;6.01;100.00;-18189.91;4958470;28;20556;-84
2023/04/20 01:26:15;;;;;;;4.97;2.97;;;;;;;5.97;100.00;-18188.78;4982187;28;20070;-84
2023/04/20 01:28:41;;;;;;;5.53;3.13;;;;;;;5.97;100.00;-18188.66;4959443;28;20584;-84
2023/04/20 01:31:07;;;;;;;5.63;3.00;;;;;;;6.01;100.00;-18189.91;4955737;28;20030;-85
2023/04/20 01:33:33;;;;;;;4.40;2.80;;;;;;;6.07;100.00;-18191.56;4963176;28;20054;-84
2023/04/20 01:35:59;;;;;;;6.53;3.45;;;;;;;6.09;100.00;-18191.97;4963217;28;20290;-85
2023/04/20 01:38:25;;;;;;;5.38;3.13;;;;;;;6.14;100.00;-18193.19;4957905;28;20114;-84
2023/04/20 01:40:51;;;;;;;7.00;3.33;;;;;;;6.14;100.00;-18193.34;4981556;28;20127;-84
2023/04/20 01:43:17;;;;;;;8.02;3.28;;;;;;;6.25;100.00;-18196.38;4957204;28;20042;-85
2023/04/20 01:45:43;;;;;;;7.88;3.00;;;;;;;6.29;100.00;-18197.34;4956852;28;20506;-84
2023/04/20 01:48:08;;;;;;;5.65;3.67;;;;;;;6.30;100.00;-18197.75;4957637;28;20065;-84
2023/04/20 01:50:33;;;;;;;6.90;3.15;;;;;;;6.39;100.00;-18199.97;4958146;28;20039;-84
2023/04/20 01:52:59;;;;;;;5.95;3.55;;;;;;;6.47;100.00;-18202.31;4985686;28;20577;-85
2023/04/20 01:55:25;;;;;;;6.65;3.47;;;;;;;6.58;100.00;-18205.06;4978807;28;20055;-84
2023/04/20 01:57:50;;;;;;;6.80;3.10;;;;;;;6.68;100.00;-18207.81;4960760;28;20035;-84
2023/04/20 02:00:16;;;;;;;6.60;3.35;;;;;;;6.76;100.00;-18210.16;4969115;28;20054;-85
2023/04/20 02:02:41;;;;;;;7.38;3.28;;;;;;;6.81;100.00;-18211.41;4966636;28;20073;-84
2023/04/20 02:05:07;;;;;;;6.47;3.33;;;;;;;6.91;100.00;-18214.16;4984086;28;20047;-84
2023/04/20 02:07:32;;;;;;;7.13;3.60;;;;;;;6.93;100.00;-18214.72;4968790;28;20041;-84
2023/04/20 02:09:57;;;;;;;7.40;3.45;;;;;;;6.94;100.00;-18214.84;4973050;28;20046;-85
2023/04/20 02:12:23;;;;;;;6.60;3.50;;;;;;;6.98;100.00;-18216.09;4971436;28;20046;-84
2023/04/20 02:14:48;;;;;;;8.25;3.45;;;;;;;6.97;100.00;-18215.81;4979761;28;20047;-84
2023/04/20 02:17:13;;;;;;;5.68;3.35;;;;;;;6.98;100.00;-18216.09;4976866;28;20050;-84
2023/04/20 02:19:39;;;;;;;7.72;3.85;;;;;;;7.01;100.00;-18216.91;4984025;28;20099;-83
2023/04/20 02:22:05;;;;;;;7.45;3.15;;;;;;;7.05;100.00;-18217.88;4984506;28;20039;-84
2023/04/20 02:24:30;;;;;;;7.30;4.03;;;;;;;7.12;100.00;-18219.66;4986432;28;20035;-84
2023/04/20 02:26:57;;;;;;;6.53;3.60;;;;;;;7.15;100.00;-18220.63;4990332;28;20035;-84
2023/04/20 02:29:23;;;;;;;6.93;3.60;;;;;;;7.14;100.00;-18220.22;4981394;28;20120;-84
2023/04/20 02:31:48;;;;;;;5.95;3.50;;;;;;;7.20;100.00;-18221.88;4987145;28;20241;-85
2023/04/20 02:34:13;;;;;;;5.80;3.35;;;;;;;7.27;100.00;-18223.81;4968362;28;20046;-85
2023/04/20 02:36:39;;;;;;;8.52;3.90;;;;;;;7.27;100.00;-18223.66;4968641;28;20050;-86
2023/04/20 02:39:04;;;;;;;6.32;3.40;;;;;;;7.29;100.00;-18224.34;4966849;28;20125;-84
2023/04/20 02:41:30;;;;;;;6.10;3.40;;;;;;;7.29;100.00;-18224.22;4971898;28;20061;-84
2023/04/20 02:43:55;;;;;;;9.07;3.67;;;;;;;7.28;100.00;-18223.94;4980069;28;20179;-85
2023/04/20 02:46:20;;;;;;;6.65;4.13;;;;;;;7.27;100.00;-18223.81;4969635;28;20549;-84
2023/04/20 02:48:46;;;;;;;8.07;4.13;;;;;;;7.29;100.00;-18224.22;4993959;28;20055;-85
2023/04/20 02:51:11;;;;;;;6.47;3.70;;;;;;;7.30;100.00;-18224.63;4968852;28;20039;-85
2023/04/20 02:53:38;;;;;;;4.72;3.13;;;;;;;7.29;100.00;-18224.34;4980065;28;20077;-84
2023/04/20 02:56:04;;;;;;;6.78;4.05;;;;;;;7.29;100.00;-18224.22;4988147;28;20038;-84
2023/04/20 02:58:30;;;;;;;6.95;3.65;;;;;;;7.29;100.00;-18224.22;4986712;28;20047;-84
2023/04/20 03:01:00;;;;;;;6.18;3.72;;;;;;;7.31;100.00;-18224.91;4972563;28;20038;-85
2023/04/20 03:03:26;;;;;;;7.57;3.78;;;;;;;7.33;100.00;-18225.31;4974150;28;20078;-85
2023/04/20 03:05:51;;;;;;;6.63;4.35;;;;;;;7.33;100.00;-18225.47;4975378;28;20044;-86
2023/04/20 03:08:16;;;;;;;6.43;3.80;;;;;;;7.32;100.00;-18225.03;4969194;28;20177;-86
2023/04/20 03:10:42;;;;;;;10.02;4.28;;;;;;;7.35;100.00;-18225.88;4972882;28;20062;-85
2023/04/20 03:13:08;;;;;;;5.68;3.78;;;;;;;7.38;100.00;-18226.69;4966270;28;20032;-85
2023/04/20 03:15:33;;;;;;;7.00;3.92;;;;;;;7.33;100.00;-18225.47;4976032;28;20039;-85
2023/04/20 03:17:58;;;;;;;6.25;3.92;;;;;;;7.35;100.00;-18226.00;4977538;28;20550;-84
2023/04/20 03:20:24;;;;;;;8.10;3.63;;;;;;;7.36;100.00;-18226.28;4974950;28;20402;-84
2023/04/20 03:22:49;;;;;;;8.93;4.15;;;;;;;7.37;100.00;-18226.44;4965232;28;20057;-85
2023/04/20 03:25:15;;;;;;;7.55;3.90;;;;;;;7.37;100.00;-18226.44;4967839;28;20039;-85
2023/04/20 03:27:40;;;;;;;7.75;3.83;;;;;;;7.33;100.00;-18225.47;4972326;28;20046;-83
2023/04/20 03:30:07;;;;;;;8.70;4.25;;;;;;;7.39;100.00;-18227.13;4974212;28;20698;-84
2023/04/20 03:32:32;;;;;;;5.97;3.90;;;;;;;7.42;100.00;-18227.94;4971477;28;20126;-85
2023/04/20 03:34:57;;;;;;;6.95;4.53;;;;;;;7.37;100.00;-18226.56;4966448;28;20110;-84
2023/04/20 03:37:23;;;;;;;6.57;3.88;;;;;;;7.32;100.00;-18225.03;4968919;28;20042;-85
2023/04/20 03:39:48;;;;;;;6.25;3.90;;;;;;;7.37;100.00;-18226.44;4970656;28;20046;-86
2023/04/20 03:42:13;;;;;;;8.52;4.05;;;;;;;7.37;100.00;-18226.56;4965141;28;20038;-85
2023/04/20 03:44:39;;;;;;;6.88;4.32;;;;;;;7.32;100.00;-18225.19;4965112;28;20047;-85
2023/04/20 03:47:04;;;;;;;6.57;4.25;;;;;;;7.31;100.00;-18224.91;4971662;28;20071;-85
2023/04/20 03:49:29;;;;;;;10.88;4.55;;;;;;;7.29;100.00;-18224.22;4968383;28;20043;-84
2023/04/20 03:51:55;;;;;;;8.18;4.25;;;;;;;7.29;100.00;-18224.34;4971738;28;20050;-85
2023/04/20 03:54:20;;;;;;;7.72;4.80;;;;;;;7.33;100.00;-18225.31;4969953;28;20517;-86
2023/04/20 03:56:48;;;;;;;7.25;4.70;;;;;;;7.32;100.00;-18225.19;4966114;28;20632;-84
2023/04/20 03:59:14;;;;;;;7.18;5.05;;;;;;;7.36;100.00;-18226.28;4969716;28;20050;-84
2023/04/20 04:01:39;;;;;;;7.07;4.97;;;;;;;7.35;100.00;-18226.00;4971242;28;20039;-85
2023/04/20 04:04:04;;;;;;;8.32;5.72;;;;;;;7.42;100.00;-18227.94;4977381;28;20064;-84
2023/04/20 04:06:31;;;;;;;6.30;4.70;;;;;;;7.38;100.00;-18226.84;4977367;28;20418;-84
2023/04/20 04:08:56;;;;;;;9.18;5.30;;;;;;;7.31;100.00;-18224.91;4977967;28;20039;-84
2023/04/20 04:11:24;;;;;;;7.43;5.00;;;;;;;7.27;100.00;-18223.81;4975974;28;20043;-84
2023/04/20 04:13:49;;;;;;;6.90;5.20;;;;;;;7.34;100.00;-18225.59;4978595;28;20043;-85
2023/04/20 04:16:15;;;;;;;9.05;5.15;;;;;;;7.33;100.00;-18225.47;4978278;28;20069;-85
2023/04/20 04:18:43;;;;;;;11.00;5.57;;;;;;;7.40;100.00;-18227.25;4983653;28;20073;-85
2023/04/20 04:21:09;;;;;;;11.02;6.13;;;;;;;7.37;100.00;-18226.56;4961371;28;20536;-86
2023/04/20 04:23:36;;;;;;;7.05;4.72;;;;;;;7.38;100.00;-18226.69;4964569;28;20075;-85
2023/04/20 04:26:01;;;;;;;11.70;5.43;;;;;;;7.34;100.00;-18225.72;4965217;28;20043;-85
2023/04/20 04:28:27;;;;;;;8.65;5.20;;;;;;;7.35;100.00;-18226.00;4962322;28;20049;-84
2023/04/20 04:30:53;;;;;;;8.38;5.30;;;;;;;7.35;100.00;-18226.00;4968853;28;20039;-85
2023/04/20 04:33:19;;;;;;;7.43;4.90;;;;;;;7.32;100.00;-18225.19;4970539;28;20055;-86
2023/04/20 04:35:45;;;;;;;9.63;5.53;;;;;;;7.31;100.00;-18224.91;4962262;28;20042;-85
2023/04/20 04:38:13;;;;;;;8.00;5.20;;;;;;;7.38;100.00;-18226.84;4967208;28;20043;-85
2023/04/20 04:40:40;;;;;;;9.37;5.87;;;;;;;7.31;100.00;-18224.91;4953197;28;20046;-85
2023/04/20 04:43:11;;;;;;;7.85;5.00;;;;;;;7.27;100.00;-18223.66;4959977;28;20297;-84
2023/04/20 04:45:39;;;;;;;8.73;5.00;;;;;;;7.33;100.00;-18225.31;4960444;28;20109;-84
2023/04/20 04:48:04;;;;;;;8.60;5.30;;;;;;;7.30;100.00;-18224.63;4962305;28;20049;-84
2023/04/20 04:50:30;;;;;;;9.52;5.32;;;;;;;7.28;100.00;-18223.94;4966063;28;20508;-85
2023/04/20 04:52:55;;;;;;;9.13;5.57;;;;;;;7.22;100.00;-18222.44;4965554;28;20528;-84
2023/04/20 04:55:21;;;;;;;8.18;5.35;;;;;;;7.17;100.00;-18221.06;4961859;28;20038;-85
2023/04/20 04:57:46;;;;;;;8.73;5.28;;;;;;;7.22;100.00;-18222.44;4963373;28;20047;-85
2023/04/20 05:00:14;;;;;;;10.60;5.60;;;;;;;7.22;100.00;-18222.44;4964520;28;20046;-84
2023/04/20 05:02:40;;;;;;;11.37;5.20;;;;;;;7.25;100.00;-18223.25;4961740;28;20136;-85
2023/04/20 05:05:07;;;;;;;10.27;5.82;;;;;;;7.20;100.00;-18221.88;4969178;28;20072;-85
2023/04/20 05:07:32;;;;;;;8.25;4.70;;;;;;;7.18;100.00;-18221.31;4960910;28;20054;-85
2023/04/20 05:09:57;;;;;;;8.88;5.13;;;;;;;7.19;100.00;-18221.59;4979080;28;20097;-85
2023/04/20 05:12:24;;;;;;;8.13;5.13;;;;;;;7.23;100.00;-18222.69;4978902;28;20054;-85
2023/04/20 05:14:50;;;;;;;8.20;5.28;;;;;;;7.20;100.00;-18221.88;4944282;28;20395;-84
2023/04/20 05:17:15;;;;;;;11.57;5.13;;;;;;;7.18;100.00;-18221.31;4976032;28;20054;-84
2023/04/20 05:19:40;;;;;;;8.25;5.28;;;;;;;7.15;100.00;-18220.50;4960929;28;20102;-84
2023/04/20 05:22:06;;;;;;;8.02;5.47;;;;;;;7.15;100.00;-18220.63;4959832;28;20066;-85
2023/04/20 05:24:31;;;;;;;8.93;5.10;;;;;;;7.13;100.00;-18219.94;4963829;28;20038;-85
2023/04/20 05:26:57;;;;;;;8.38;4.90;;;;;;;7.11;100.00;-18219.53;4974046;28;20473;-85
2023/04/20 05:29:22;;;;;;;6.65;4.65;;;;;;;7.11;100.00;-18219.41;4971399;28;20543;-85
2023/04/20 05:31:48;;;;;;;8.18;5.65;;;;;;;7.11;100.00;-18219.53;4966448;28;20055;-85
2023/04/20 05:34:13;;;;;;;7.35;5.00;;;;;;;7.16;100.00;-18220.78;4979985;28;20525;-84
2023/04/20 05:36:39;;;;;;;9.60;5.32;;;;;;;7.14;100.00;-18220.22;4978802;28;20070;-84
2023/04/20 05:39:05;;;;;;;8.32;4.68;;;;;;;7.18;100.00;-18221.31;4979856;28;20051;-84
2023/04/20 05:41:30;;;;;;;10.43;5.45;;;;;;;7.19;100.00;-18221.59;4966529;28;20050;-83
2023/04/20 05:43:55;;;;;;;6.88;4.65;;;;;;;7.18;100.00;-18221.31;4967514;28;20078;-83
2023/04/20 05:46:21;;;;;;;9.35;4.90;;;;;;;7.22;100.00;-18222.56;4975991;28;20039;-84
2023/04/20 05:48:47;;;;;;;7.72;4.65;;;;;;;7.26;100.00;-18223.41;4969385;28;20122;-84
2023/04/20 05:51:13;;;;;;;8.35;4.72;;;;;;;7.27;100.00;-18223.66;4972137;28;20055;-84
2023/04/20 05:53:39;;;;;;;11.75;5.50;;;;;;;7.20;100.00;-18222.00;4967504;28;20042;-84
2023/04/20 05:56:05;;;;;;;6.90;4.97;;;;;;;7.21;100.00;-18222.16;4965288;28;20070;-85
2023/04/20 05:58:32;;;;;;;7.53;4.57;;;;;;;7.17;100.00;-18221.19;4967690;28;20081;-84
2023/04/20 06:00:57;;;;;;;7.20;4.30;;;;;;;7.19;100.00;-18221.59;4984619;28;20041;-85
2023/04/20 06:03:23;;;;;;;7.82;4.32;;;;;;;7.24;100.00;-18222.97;4962699;28;20122;-84
2023/04/20 06:05:48;;;;;;;9.25;5.32;;;;;;;7.22;100.00;-18222.44;4967990;28;20476;-84
2023/04/20 06:08:14;;;;;;;6.30;4.60;;;;;;;7.19;100.00;-18221.59;4963337;28;20038;-84
2023/04/20 06:10:39;;;;;;;9.40;4.80;;;;;;;7.22;100.00;-18222.44;4959607;28;20041;-84
2023/04/20 06:13:05;;;;;;;8.45;5.00;;;;;;;7.21;100.00;-18222.16;4944243;28;20047;-84
2023/04/20 06:15:32;;;;;;;11.93;5.07;;;;;;;7.20;100.00;-18222.00;4958229;28;20047;-84
2023/04/20 06:17:58;;;;;;;7.72;5.25;;;;;;;7.28;100.00;-18223.94;4986872;28;20049;-84
2023/04/20 06:20:23;;;;;;;10.45;5.00;;;;;;;7.25;100.00;-18223.25;4968210;28;20035;-84
2023/04/20 06:22:49;;;;;;;8.98;5.30;;;;;;;7.26;100.00;-18223.41;4967302;28;20102;-85
2023/04/20 06:25:14;;;;;;;6.55;4.93;;;;;;;7.27;100.00;-18223.81;4969682;28;20035;-85
2023/04/20 06:27:40;;;;;;;9.23;4.95;;;;;;;7.25;100.00;-18223.25;4968938;28;20050;-85
2023/04/20 06:30:06;;;;;;;6.88;4.22;;;;;;;7.34;100.00;-18225.59;4965527;28;20042;-84
2023/04/20 06:32:32;;;;;;;10.23;5.22;;;;;;;7.29;100.00;-18224.34;4964981;28;20109;-85
2023/04/20 06:34:57;;;;;;;7.30;4.80;;;;;;;7.29;100.00;-18224.34;4964760;28;20039;-85
2023/04/20 06:37:22;;;;;;;7.97;4.70;;;;;;;7.33;100.00;-18225.47;4959768;28;20046;-85
2023/04/20 06:39:55;;;;;;;9.38;5.25;;;;;;;7.32;100.00;-18225.19;4973422;28;20497;-85
2023/04/20 06:42:24;;;;;;;8.60;4.93;;;;;;;7.25;100.00;-18223.25;4986422;28;20057;-84
2023/04/20 06:44:49;;;;;;;7.35;5.03;;;;;;;7.22;100.00;-18222.44;4969374;28;20091;-85
2023/04/20 06:47:15;;;;;;;9.10;4.78;;;;;;;7.26;100.00;-18223.53;4962356;28;20630;-85
2023/04/20 06:49:40;;;;;;;7.93;5.18;;;;;;;7.20;100.00;-18221.88;4963891;28;20162;-86
2023/04/20 06:52:06;;;;;;;10.20;5.03;;;;;;;7.21;100.00;-18222.16;4964747;28;20042;-84
2023/04/20 06:54:31;;;;;;;10.90;7.43;;;;;;;7.20;100.00;-18221.88;4956777;28;20118;-84
2023/04/20 06:56:57;;;;;;;14.73;10.05;;;;;;;7.15;100.00;-18220.63;4963944;28;20101;-85
2023/04/20 06:59:22;;;;;;;14.48;9.07;;;;;;;7.17;100.00;-18221.06;4960479;28;20039;-85
2023/04/20 07:01:48;;;;;;;13.27;8.32;;;;;;;7.19;100.00;-18221.59;4969915;28;20050;-84
2023/04/20 07:04:13;;;;;;;9.57;5.68;;;;;;;7.20;100.00;-18222.00;4961602;28;20034;-84
2023/04/20 07:06:38;;;;;;;14.05;9.30;;;;;;;7.22;100.00;-18222.44;4964560;28;20052;-84
2023/04/20 07:09:04;;;;;;;9.23;6.47;;;;;;;7.22;100.00;-18222.56;4975408;28;20047;-84
2023/04/20 07:11:29;;;;;;;9.95;6.53;;;;;;;7.21;100.00;-18222.28;4981850;28;20039;-84
2023/04/20 07:13:54;;;;;;;11.13;7.10;;;;;;;7.21;100.00;-18222.28;4961368;28;20133;-84
2023/04/20 07:16:20;;;;;;;8.35;6.20;;;;;;;7.25;100.00;-18223.25;4960806;28;20035;-86
2023/04/20 07:18:45;;;;;;;10.95;7.13;;;;;;;7.23;100.00;-18222.69;4968740;28;21077;-85
2023/04/20 07:21:11;;;;;;;14.15;8.05;;;;;;;7.26;100.00;-18223.41;4963268;28;20070;-85
2023/04/20 07:23:36;;;;;;;10.57;6.97;;;;;;;7.24;100.00;-18223.13;4966453;28;20650;-85
2023/04/20 07:26:01;;;;;;;12.55;7.95;;;;;;;7.28;100.00;-18223.94;4958152;28;20062;-84
2023/04/20 07:28:27;;;;;;;12.52;7.95;;;;;;;7.26;100.00;-18223.53;4961960;28;20050;-84
2023/04/20 07:30:52;;;;;;;9.82;6.95;;;;;;;7.28;100.00;-18224.09;4961557;28;20039;-85
2023/04/20 07:33:17;;;;;;;10.57;7.47;;;;;;;7.32;100.00;-18225.03;4959161;28;20466;-84
2023/04/20 07:35:43;;;;;;;12.52;7.60;;;;;;;7.39;100.00;-18227.13;4958002;28;20369;-85
2023/04/20 07:38:09;;;;;;;13.00;8.85;;;;;;;7.43;100.00;-18228.06;4963564;28;20046;-84
2023/04/20 07:40:34;;;;;;;9.85;7.57;;;;;;;7.47;100.00;-18229.31;4982876;28;20030;-84
2023/04/20 07:42:59;;;;;;;10.63;7.63;;;;;;;7.54;100.00;-18230.97;4965993;28;20046;-84
2023/04/20 07:45:25;;;;;;;8.88;6.60;;;;;;;7.59;100.00;-18232.34;4962978;28;20034;-85
2023/04/20 07:47:51;;;;;;;10.90;7.38;;;;;;;7.62;100.00;-18233.31;4961264;28;20434;-84
2023/04/20 07:50:16;;;;;;;7.32;6.00;;;;;;;7.67;100.00;-18234.56;4959927;28;20031;-84
2023/04/20 07:52:43;;;;;;;12.48;6.80;;;;;;;7.71;100.00;-18235.66;4969609;28;20042;-84
2023/04/20 07:55:10;;;;;;;9.63;7.22;;;;;;;7.68;100.00;-18234.81;4959868;28;20035;-85
2023/04/20 07:57:36;;;;;;;10.23;6.50;;;;;;;7.68;100.00;-18234.97;4963527;28;20678;-84
2023/04/20 08:00:06;;;;;;;20.58;12.55;;;;;;;7.72;100.00;-18235.94;4961791;28;20043;-84
2023/04/20 08:02:32;;;;;;;13.25;8.43;;;;;;;7.68;100.00;-18234.81;4955446;28;20054;-85
2023/04/20 08:04:57;;;;;;;9.82;6.38;;;;;;;7.74;100.00;-18236.47;4966670;28;20046;-84
2023/04/20 08:07:22;;;;;;;10.85;6.70;;;;;;;7.88;100.00;-18240.19;4957856;28;20419;-84
2023/04/20 08:09:48;;;;;;;12.90;8.55;;;;;;;7.83;100.00;-18238.97;4955302;28;20043;-85
2023/04/20 08:12:13;;;;;;;12.35;6.25;;;;;;;7.89;100.00;-18240.47;4981601;28;20121;-85
2023/04/20 08:14:40;;;;;;;9.23;6.05;;;;;;;7.85;100.00;-18239.50;4958110;28;20064;-85
2023/04/20 08:17:06;;;;;;;12.60;8.10;;;;;;;7.86;100.00;-18239.66;4955403;28;20051;-84
2023/04/20 08:19:32;;;;;;;10.00;6.57;;;;;;;7.89;100.00;-18240.47;4972351;28;20054;-84
2023/04/20 08:21:57;;;;;;;9.63;5.75;;;;;;;7.89;100.00;-18240.59;4986152;28;20038;-84
2023/04/20 08:24:22;;;;;;;9.02;6.07;;;;;;;7.95;100.00;-18242.13;4970520;28;20089;-85
2023/04/20 08:26:48;;;;;;;9.95;5.70;;;;;;;8.00;100.00;-18243.50;4965556;28;20118;-84
2023/04/20 08:29:14;;;;;;;10.40;6.43;;;;;;;7.98;100.00;-18242.94;4981005;28;20043;-85
2023/04/20 08:31:39;;;;;;;9.43;5.63;;;;;;;8.02;100.00;-18243.91;4965898;28;20336;-85
2023/04/20 08:34:05;;;;;;;10.15;6.18;;;;;;;8.04;100.00;-18244.47;4960567;28;20055;-85
2023/04/20 08:36:30;;;;;;;7.68;5.55;;;;;;;8.00;100.00;-18243.50;4956237;28;20498;-85
2023/04/20 08:39:06;;;;;;;9.50;5.82;;;;;;;8.12;100.00;-18246.81;4983366;28;20129;-84
2023/04/20 08:41:31;;;;;;;9.52;5.95;;;;;;;8.15;100.00;-18247.50;4957296;28;20107;-84
2023/04/20 08:43:57;;;;;;;8.07;6.03;;;;;;;8.19;100.00;-18248.59;4967448;28;20118;-85
2023/04/20 08:46:23;;;;;;;10.05;6.60;;;;;;;8.24;100.00;-18249.97;4965231;28;20035;-85
2023/04/20 08:48:49;;;;;;;9.95;4.88;;;;;;;8.25;100.00;-18250.09;4954603;28;20107;-84
2023/04/20 08:51:18;;;;;;;8.05;5.82;;;;;;;8.28;100.00;-18251.06;4954280;28;20039;-85
2023/04/20 08:53:43;;;;;;;6.93;4.87;;;;;;;8.27;100.00;-18250.66;4964754;28;20126;-84
2023/04/20 08:56:09;;;;;;;8.38;5.53;;;;;;;8.33;100.00;-18252.44;4975947;28;20717;-84
2023/04/20 08:58:37;;;;;;;8.93;5.20;;;;;;;8.40;100.00;-18254.09;4957341;28;20053;-84
2023/04/20 09:01:02;;;;;;;8.73;4.70;;;;;;;8.41;100.00;-18254.53;4965207;28;20031;-84
2023/04/20 09:03:41;;;;;;;8.80;5.75;;;;;;;8.33;100.00;-18252.31;4951450;28;20050;-85
2023/04/20 09:06:17;;;;;;;8.50;5.30;;;;;;;8.37;100.00;-18253.41;4965151;28;20557;-84
2023/04/20 09:08:43;;;;;;;8.65;5.25;;;;;;;8.36;100.00;-18253.28;4957034;28;20073;-84
2023/04/20 09:11:26;;;;;;;11.65;6.78;;;;;;;8.39;100.00;-18253.84;4958767;28;20046;-85
2023/04/20 09:14:14;;;;;;;9.57;5.85;;;;;;;8.34;100.00;-18252.72;4960620;28;20097;-84
2023/04/20 09:17:03;;;;;;;9.35;5.78;;;;;;;8.49;100.00;-18256.72;4958999;28;20953;-85
2023/04/20 09:19:30;;;;;;;9.48;6.28;;;;;;;8.51;100.00;-18257.28;4956986;28;20035;-83
2023/04/20 09:21:58;;;;;;;10.50;6.35;;;;;;;8.62;100.00;-18260.16;4953543;28;20050;-84
2023/04/20 09:24:31;;;;;;;6.70;5.28;;;;;;;8.80;100.00;-18265.13;4955609;28;20035;-83
2023/04/20 09:26:57;;;;;;;8.25;5.10;;;;;;;8.90;100.00;-18267.72;4970099;28;20191;-84
2023/04/20 09:29:24;;;;;;;8.45;5.40;;;;;;;9.04;100.00;-18271.44;4956868;28;20098;-84
2023/04/20 09:31:50;;;;;;;10.32;5.65;;;;;;;9.06;100.00;-18271.84;4960398;28;20094;-84
2023/04/20 09:34:17;;;;;;;7.93;5.40;;;;;;;9.12;100.00;-18273.66;4958921;28;20047;-85
2023/04/20 09:36:45;;;;;;;9.55;5.47;;;;;;;9.11;100.00;-18273.38;4957122;28;20042;-85
2023/04/20 09:39:16;;;;;;;10.35;6.22;;;;;;;9.18;100.00;-18275.31;4951632;28;20038;-85
2023/04/20 09:41:42;;;;;;;7.63;5.60;;;;;;;9.38;100.00;-18280.53;4956106;28;20031;-83
2023/04/20 09:44:08;;;;;;;9.85;6.38;;;;;;;9.41;100.00;-18281.34;4959591;28;20054;-84
2023/04/20 09:46:36;;;;;;;8.35;5.65;;;;;;;9.42;100.00;-18281.75;4965937;28;20028;-85
2023/04/20 09:49:04;;;;;;;9.07;5.10;;;;;;;9.45;100.00;-18282.59;4965247;28;20517;-85
2023/04/20 09:51:34;;;;;;;12.20;7.70;;;;;;;9.49;100.00;-18283.69;4979115;28;20038;-85
2023/04/20 09:54:01;;;;;;;11.27;5.80;;;;;;;9.57;100.00;-18285.75;4972800;28;20270;-85
2023/04/20 09:56:28;;;;;;;9.25;5.22;;;;;;;9.61;100.00;-18286.84;4951514;28;20039;-85
2023/04/20 09:58:54;;;;;;;8.82;5.47;;;;;;;9.59;100.00;-18286.16;4973377;28;20039;-84
2023/04/20 10:01:21;;;;;;;6.90;4.47;;;;;;;9.58;100.00;-18286.03;4958037;28;20035;-85
2023/04/20 10:03:47;;;;;;;9.18;5.63;;;;;;;9.59;100.00;-18286.31;4951665;28;20050;-85
2023/04/20 10:06:22;;;;;;;7.10;5.45;;;;;;;9.61;100.00;-18286.84;4955613;28;20030;-85
2023/04/20 10:08:50;;;;;;;12.38;6.18;;;;;;;9.66;100.00;-18288.09;4950975;28;20035;-85
2023/04/20 10:11:36;;;;;;;8.27;5.80;;;;;;;9.60;100.00;-18286.56;4958614;28;20066;-85
2023/04/20 10:14:15;;;;;;;8.77;5.72;;;;;;;9.59;100.00;-18286.31;4915628;28;20065;-84
2023/04/20 10:16:42;;;;;;;7.50;5.97;;;;;;;9.59;100.00;-18286.31;4963502;28;20042;-86
2023/04/20 10:19:08;;;;;;;8.73;5.80;;;;;;;9.65;100.00;-18287.94;4967748;28;20551;-84
2023/04/20 10:21:45;;;;;;;8.65;5.63;;;;;;;9.70;100.00;-18289.31;4977752;28;20133;-85
2023/04/20 10:24:10;;;;;;;7.63;5.38;;;;;;;9.71;100.00;-18289.59;4976871;28;20038;-84
2023/04/20 10:26:37;;;;;;;8.02;5.80;;;;;;;9.78;100.00;-18291.25;4977463;28;20485;-85
2023/04/20 10:29:02;;;;;;;8.98;6.38;;;;;;;9.79;100.00;-18291.53;4970236;28;20047;-84
2023/04/20 10:31:38;;;;;;;9.98;6.35;;;;;;;9.80;100.00;-18291.81;4960877;28;20041;-85
2023/04/20 10:34:04;;;;;;;9.02;6.43;;;;;;;9.93;100.00;-18295.50;4983080;28;20042;-85
2023/04/20 10:36:35;;;;;;;8.98;5.82;;;;;;;9.94;100.00;-18295.66;4963908;28;20190;-84
2023/04/20 10:39:19;;;;;;;9.38;6.38;;;;;;;9.92;100.00;-18295.09;4960915;28;20034;-84
2023/04/20 10:41:53;;;;;;;8.98;6.00;;;;;;;9.94;100.00;-18295.66;4957936;28;20406;-85
2023/04/20 10:44:18;;;;;;;9.45;6.35;;;;;;;9.96;100.00;-18296.19;4961894;28;20035;-85
2023/04/20 10:46:48;;;;;;;11.43;6.75;;;;;;;9.97;100.00;-18296.34;4961412;28;20046;-85
2023/04/20 10:49:13;;;;;;;;;;;;;;;9.97;100.00;-18296.34;4955536;28;20671;-84
2023/04/20 10:51:46;;;;;;;11.40;6.53;;;;;;;9.83;100.00;-18292.75;4964319;28;20077;-84
2023/04/20 10:54:11;;;;;;;8.43;6.22;;;;;;;9.81;100.00;-18292.06;4959005;28;20039;-85
2023/04/20 10:56:45;;;;;;;7.93;5.75;;;;;;;9.88;100.00;-18294.00;4961845;28;20600;-85
2023/04/20 10:59:19;;;;;;;8.77;5.93;;;;;;;9.94;100.00;-18295.78;4966447;28;20059;-84
2023/04/20 11:01:46;;;;;;;9.10;6.38;;;;;;;10.02;100.00;-18297.84;4968802;28;20047;-85
2023/04/20 11:04:12;;;;;;;9.55;6.85;;;;;;;10.09;100.00;-18299.78;4966538;28;20039;-85
2023/04/20 11:06:39;;;;;;;9.70;6.43;;;;;;;10.22;100.00;-18303.06;4958440;28;20038;-85
2023/04/20 11:09:27;;;;;;;10.43;6.18;;;;;;;10.30;100.00;-18305.41;4970203;28;20034;-84
2023/04/20 11:12:13;;;;;;;10.00;6.82;;;;;;;10.38;100.00;-18307.47;4965751;28;20046;-85
2023/04/20 11:14:53;;;;;;;9.25;6.13;;;;;;;10.32;100.00;-18305.81;4952879;28;20046;-85
2023/04/20 11:17:19;;;;;;;9.07;6.75;;;;;;;10.21;100.00;-18302.94;4979287;28;20053;-84
2023/04/20 11:19:45;;;;;;;9.88;7.15;;;;;;;10.15;100.00;-18301.41;4970512;28;20038;-85
2023/04/20 11:22:20;;;;;;;11.70;7.32;;;;;;;10.19;100.00;-18302.25;4959331;28;20039;-85